Terminal Aerodrome Forecast
Issued by NWS Omaha/Valley, NE

Home | Current Version | Previous Version | Text Only | Print | Product List | Glossary On
Versions: 1 2 3 4 5 6 7 8 9 10 11 12 13 14 15 16 17 18 19 20 21 22 23 24 25 26 27 28 29 30 31 32 33 34 35 36 37 38 39 40 41 42 43 44 45 46
613
FTUS43 KOAX 180520
TAFOMA
TAF
KOMA 180520Z 1806/1906 35014KT P6SM VCSH OVC015
     FM180700 35016G24KT P6SM -SHRA OVC020
      TEMPO 1809/1812 4SM -RASN OVC007
     FM181200 33019G27KT P6SM VCSH OVC040
     FM181500 33020G30KT P6SM OVC100
     FM190100 32007KT P6SM SKC=

USA.gov is the U.S. government's official web portal to all federal, state and local government web resources and services.